Time;durP1;ratioP1;P1;durP2;ratioP2;P2;SDS_P1;SDS_P2;PMS_P1;PMS_P2;Temp;Humidity;BMP_temperature;BMP_pressure;BME280_temperature;BME280_humidity;BME280_pressure;Samples;Min_cycle;Max_cycle;Signal;HPM_P1;HPM_P2
2023/12/04 00:01:21;;;;;;;25.27;13.88;;;;;;;;;;5121363;27;20517;-57
2023/12/04 00:03:47;;;;;;;24.30;12.88;;;;;;;;;;5117635;27;20043;-56
2023/12/04 00:06:13;;;;;;;20.35;12.25;;;;;;;;;;5117250;27;20043;-56
2023/12/04 00:08:40;;;;;;;20.95;13.10;;;;;;;;;;5119983;27;20038;-56
2023/12/04 00:11:06;;;;;;;18.83;11.52;;;;;;;;;;5118535;27;20126;-56
2023/12/04 00:13:33;;;;;;;20.77;12.00;;;;;;;;;;5119452;27;20384;-56
2023/12/04 00:15:59;;;;;;;21.35;12.05;;;;;;;;;;5119018;27;20451;-56
2023/12/04 00:18:25;;;;;;;22.17;13.05;;;;;;;;;;5118350;27;20399;-56
2023/12/04 00:20:51;;;;;;;20.10;12.70;;;;;;;;;;5118678;27;20058;-57
2023/12/04 00:23:18;;;;;;;18.73;10.90;;;;;;;;;;5117589;27;20051;-57
2023/12/04 00:25:44;;;;;;;18.70;10.88;;;;;;;;;;5119229;27;20558;-56
2023/12/04 00:28:10;;;;;;;23.60;12.70;;;;;;;;;;5120379;27;20081;-56
2023/12/04 00:30:36;;;;;;;22.55;12.90;;;;;;;;;;5117078;27;20124;-56
2023/12/04 00:33:02;;;;;;;18.98;11.23;;;;;;;;;;5118757;27;20096;-56
2023/12/04 00:35:28;;;;;;;18.70;10.48;;;;;;;;;;5115335;27;20447;-57
2023/12/04 00:37:54;;;;;;;18.23;10.43;;;;;;;;;;5115498;27;20035;-56
2023/12/04 00:40:20;;;;;;;20.38;11.65;;;;;;;;;;5122045;27;20050;-56
2023/12/04 00:42:46;;;;;;;18.23;10.43;;;;;;;;;;5114777;27;20411;-56
2023/12/04 00:45:12;;;;;;;16.77;9.95;;;;;;;;;;5111106;27;20036;-57
2023/12/04 00:47:38;;;;;;;17.73;10.38;;;;;;;;;;5116354;27;20051;-57
2023/12/04 00:50:04;;;;;;;18.75;11.52;;;;;;;;;;5114156;27;20055;-56
2023/12/04 00:52:30;;;;;;;18.95;11.50;;;;;;;;;;5115057;27;20091;-56
2023/12/04 00:54:56;;;;;;;18.83;11.60;;;;;;;;;;5112965;27;20039;-56
2023/12/04 00:57:22;;;;;;;17.75;11.45;;;;;;;;;;5122010;27;20042;-56
2023/12/04 00:59:48;;;;;;;19.30;11.88;;;;;;;;;;5118547;27;20118;-56
2023/12/04 01:02:14;;;;;;;18.00;10.50;;;;;;;;;;5114741;27;20146;-56
2023/12/04 01:04:43;;;;;;;22.30;13.60;;;;;;;;;;5119473;27;20046;-57
2023/12/04 01:07:09;;;;;;;22.50;13.95;;;;;;;;;;5117778;27;20468;-56
2023/12/04 01:09:36;;;;;;;22.00;13.18;;;;;;;;;;5117759;27;20046;-56
2023/12/04 01:12:02;;;;;;;21.48;12.02;;;;;;;;;;5118029;27;20073;-56
2023/12/04 01:14:28;;;;;;;21.10;12.25;;;;;;;;;;5115893;27;20041;-56
2023/12/04 01:16:54;;;;;;;21.70;12.65;;;;;;;;;;5119128;27;20039;-56
2023/12/04 01:19:20;;;;;;;18.08;11.18;;;;;;;;;;5115308;27;20043;-56
2023/12/04 01:21:46;;;;;;;20.83;12.70;;;;;;;;;;5113727;27;20043;-56
2023/12/04 01:24:12;;;;;;;20.40;12.32;;;;;;;;;;5115965;27;20088;-56
2023/12/04 01:26:38;;;;;;;21.23;11.45;;;;;;;;;;5113050;27;20045;-57
2023/12/04 01:29:04;;;;;;;18.80;12.15;;;;;;;;;;5113241;27;20035;-56
2023/12/04 01:31:30;;;;;;;19.63;12.32;;;;;;;;;;5114403;27;20065;-56
2023/12/04 01:33:56;;;;;;;17.23;10.30;;;;;;;;;;5113638;27;20053;-56
2023/12/04 01:36:22;;;;;;;17.27;10.27;;;;;;;;;;5114332;27;20100;-56
2023/12/04 01:38:48;;;;;;;18.42;11.52;;;;;;;;;;5112096;27;20043;-57
2023/12/04 01:41:14;;;;;;;18.40;11.25;;;;;;;;;;5113051;27;20035;-57
2023/12/04 01:43:40;;;;;;;16.02;10.23;;;;;;;;;;5112436;27;20510;-56
2023/12/04 01:46:07;;;;;;;17.48;10.23;;;;;;;;;;5111502;27;20042;-56
2023/12/04 01:48:33;;;;;;;17.65;10.95;;;;;;;;;;5112738;27;20046;-56
2023/12/04 01:51:01;;;;;;;16.98;10.98;;;;;;;;;;5097479;27;20039;-57
2023/12/04 01:53:27;;;;;;;15.40;10.40;;;;;;;;;;5115833;27;20463;-56
2023/12/04 01:55:53;;;;;;;15.35;9.60;;;;;;;;;;5115177;27;20027;-57
2023/12/04 01:58:19;;;;;;;17.27;11.88;;;;;;;;;;5092065;27;20043;-56
2023/12/04 02:00:46;;;;;;;23.67;13.82;;;;;;;;;;5114268;27;20536;-57
2023/12/04 02:03:11;;;;;;;18.13;12.82;;;;;;;;;;5115597;27;20031;-56
2023/12/04 02:05:38;;;;;;;22.38;12.18;;;;;;;;;;5115903;27;20076;-56
2023/12/04 02:08:04;;;;;;;19.60;12.05;;;;;;;;;;5116537;27;20035;-57
2023/12/04 02:10:30;;;;;;;16.85;10.73;;;;;;;;;;5117114;27;20039;-56
2023/12/04 02:12:57;;;;;;;19.98;12.80;;;;;;;;;;5116350;27;20483;-56
2023/12/04 02:15:23;;;;;;;18.05;12.20;;;;;;;;;;5116242;27;20399;-56
2023/12/04 02:17:49;;;;;;;16.48;11.18;;;;;;;;;;5114338;27;20562;-56
2023/12/04 02:20:15;;;;;;;18.38;11.02;;;;;;;;;;5113679;28;20108;-56
2023/12/04 02:22:42;;;;;;;17.80;11.15;;;;;;;;;;5120601;27;20035;-56
2023/12/04 02:25:09;;;;;;;15.05;9.18;;;;;;;;;;5114289;28;20082;-57
2023/12/04 02:27:41;;;;;;;15.20;9.80;;;;;;;;;;5113115;28;20035;-56
2023/12/04 02:30:08;;;;;;;15.30;10.02;;;;;;;;;;5115264;28;20035;-56
2023/12/04 02:32:36;;;;;;;17.27;10.77;;;;;;;;;;5095103;28;20098;-57
2023/12/04 02:35:06;;;;;;;15.23;9.98;;;;;;;;;;5115379;28;20283;-56
2023/12/04 02:37:32;;;;;;;22.15;13.07;;;;;;;;;;5112396;28;20035;-57
2023/12/04 02:39:59;;;;;;;21.27;14.60;;;;;;;;;;5113212;28;20092;-56
2023/12/04 02:42:25;;;;;;;18.10;11.90;;;;;;;;;;5115395;28;20043;-56
2023/12/04 02:44:51;;;;;;;16.63;11.45;;;;;;;;;;5111336;28;20032;-56
2023/12/04 02:47:18;;;;;;;14.60;10.13;;;;;;;;;;5116941;28;20503;-57
2023/12/04 02:49:44;;;;;;;18.75;12.45;;;;;;;;;;5094025;28;20445;-57
2023/12/04 02:52:10;;;;;;;17.40;10.50;;;;;;;;;;5118800;28;20134;-57
2023/12/04 02:54:36;;;;;;;18.10;12.07;;;;;;;;;;5117312;28;20437;-56
2023/12/04 02:57:02;;;;;;;17.90;11.90;;;;;;;;;;5112623;28;20039;-57
2023/12/04 02:59:28;;;;;;;15.63;10.07;;;;;;;;;;5114239;28;20027;-56
2023/12/04 03:01:54;;;;;;;19.63;11.65;;;;;;;;;;5112517;28;20050;-56
2023/12/04 03:04:20;;;;;;;20.35;12.63;;;;;;;;;;5113412;28;20514;-57
2023/12/04 03:06:47;;;;;;;15.35;11.18;;;;;;;;;;5114645;28;20425;-56
2023/12/04 03:09:13;;;;;;;16.20;10.45;;;;;;;;;;5114039;28;20066;-56
2023/12/04 03:11:42;;;;;;;16.00;11.15;;;;;;;;;;5116169;28;20050;-57
2023/12/04 03:14:08;;;;;;;17.05;10.88;;;;;;;;;;5115459;28;20039;-56
2023/12/04 03:16:34;;;;;;;16.48;10.50;;;;;;;;;;5111172;28;20044;-58
2023/12/04 03:19:00;;;;;;;18.52;11.82;;;;;;;;;;5113878;28;20036;-58
2023/12/04 03:21:26;;;;;;;17.63;11.30;;;;;;;;;;5114060;28;20150;-59
2023/12/04 03:23:52;;;;;;;18.60;11.77;;;;;;;;;;5119049;28;20483;-59
2023/12/04 03:26:18;;;;;;;17.80;12.07;;;;;;;;;;5119898;27;20074;-58
2023/12/04 03:28:44;;;;;;;15.95;10.00;;;;;;;;;;5122175;27;20082;-58
2023/12/04 03:31:10;;;;;;;16.52;10.77;;;;;;;;;;5122918;27;20104;-58
2023/12/04 03:33:36;;;;;;;20.98;11.73;;;;;;;;;;5124014;27;20482;-58
2023/12/04 03:36:02;;;;;;;20.17;13.18;;;;;;;;;;5121391;27;20044;-57
2023/12/04 03:38:28;;;;;;;18.45;11.35;;;;;;;;;;5121213;27;20035;-57
2023/12/04 03:40:54;;;;;;;18.98;10.60;;;;;;;;;;5119139;27;20046;-56
2023/12/04 03:43:20;;;;;;;16.08;10.63;;;;;;;;;;5123931;27;20050;-56
2023/12/04 03:45:46;;;;;;;19.55;11.93;;;;;;;;;;5120433;27;20035;-56
2023/12/04 03:48:12;;;;;;;15.82;9.93;;;;;;;;;;5117737;27;20503;-56
2023/12/04 03:50:38;;;;;;;16.50;9.60;;;;;;;;;;5096422;27;20047;-56
2023/12/04 03:53:04;;;;;;;16.77;9.98;;;;;;;;;;5114157;27;20043;-57
2023/12/04 03:55:30;;;;;;;17.15;10.02;;;;;;;;;;5113291;27;20046;-56
2023/12/04 03:57:57;;;;;;;14.70;10.23;;;;;;;;;;5115775;27;20670;-56
2023/12/04 04:00:24;;;;;;;17.75;10.63;;;;;;;;;;5120735;27;20043;-56
2023/12/04 04:02:50;;;;;;;18.40;10.32;;;;;;;;;;5115592;27;20079;-56
2023/12/04 04:05:16;;;;;;;18.70;11.68;;;;;;;;;;5115341;27;20061;-56
2023/12/04 04:07:42;;;;;;;19.83;11.98;;;;;;;;;;5115450;27;20036;-56
2023/12/04 04:10:08;;;;;;;16.08;10.07;;;;;;;;;;5113765;27;20039;-56
2023/12/04 04:12:35;;;;;;;17.27;10.27;;;;;;;;;;5114727;27;20122;-56
2023/12/04 04:15:00;;;;;;;16.92;11.00;;;;;;;;;;5120143;27;20058;-57
2023/12/04 04:17:26;;;;;;;16.55;10.32;;;;;;;;;;5116270;27;20505;-56
2023/12/04 04:19:53;;;;;;;16.40;10.80;;;;;;;;;;5115712;27;20051;-56
2023/12/04 04:22:19;;;;;;;18.60;10.90;;;;;;;;;;5115565;27;20060;-56
2023/12/04 04:24:45;;;;;;;19.65;11.05;;;;;;;;;;5114229;27;20059;-57
2023/12/04 04:27:11;;;;;;;19.02;12.23;;;;;;;;;;5116421;27;20447;-57
2023/12/04 04:29:37;;;;;;;18.60;11.57;;;;;;;;;;5117083;27;20053;-56
2023/12/04 04:32:03;;;;;;;18.75;11.10;;;;;;;;;;5113231;27;20503;-57
2023/12/04 04:34:29;;;;;;;17.90;11.07;;;;;;;;;;5119523;27;20046;-57
2023/12/04 04:36:55;;;;;;;15.80;9.52;;;;;;;;;;5118525;27;20103;-57
2023/12/04 04:39:21;;;;;;;16.58;10.13;;;;;;;;;;5117471;27;20043;-57
2023/12/04 04:41:48;;;;;;;13.73;9.07;;;;;;;;;;5122147;27;20043;-57
2023/12/04 04:44:14;;;;;;;13.23;9.23;;;;;;;;;;5121075;27;20043;-57
2023/12/04 04:46:40;;;;;;;15.35;10.13;;;;;;;;;;5115561;27;20109;-57
2023/12/04 04:49:06;;;;;;;14.57;8.77;;;;;;;;;;5114497;27;20055;-56
2023/12/04 04:51:33;;;;;;;14.60;9.90;;;;;;;;;;5115221;27;20054;-57
2023/12/04 04:53:59;;;;;;;16.45;9.93;;;;;;;;;;5114783;27;20043;-56
2023/12/04 04:56:25;;;;;;;16.13;9.70;;;;;;;;;;5121801;27;20035;-56
2023/12/04 04:58:51;;;;;;;16.98;10.55;;;;;;;;;;5110584;27;20518;-56
2023/12/04 05:01:17;;;;;;;17.65;10.15;;;;;;;;;;5117013;27;20142;-56
2023/12/04 05:03:43;;;;;;;17.70;10.50;;;;;;;;;;5116247;27;20100;-56
2023/12/04 05:06:09;;;;;;;15.80;9.50;;;;;;;;;;5115658;27;20310;-57
2023/12/04 05:08:35;;;;;;;17.60;9.98;;;;;;;;;;5116002;27;20038;-56
2023/12/04 05:11:01;;;;;;;17.73;11.63;;;;;;;;;;5114336;27;20115;-58
2023/12/04 05:13:28;;;;;;;15.88;9.95;;;;;;;;;;5110315;27;20050;-59
2023/12/04 05:15:54;;;;;;;17.38;10.32;;;;;;;;;;5120597;27;20682;-58
2023/12/04 05:18:20;;;;;;;19.38;11.85;;;;;;;;;;5117127;27;20040;-56
2023/12/04 05:20:46;;;;;;;20.52;12.68;;;;;;;;;;5120597;27;20046;-56
2023/12/04 05:23:12;;;;;;;20.55;12.18;;;;;;;;;;5114172;27;20429;-56
2023/12/04 05:25:38;;;;;;;21.00;12.52;;;;;;;;;;5115734;27;20046;-57
2023/12/04 05:28:04;;;;;;;19.75;11.38;;;;;;;;;;5117590;27;20534;-56
2023/12/04 05:30:30;;;;;;;17.73;11.07;;;;;;;;;;5114375;27;20042;-57
2023/12/04 05:32:56;;;;;;;18.90;10.85;;;;;;;;;;5116661;27;20088;-56
2023/12/04 05:35:22;;;;;;;18.95;11.05;;;;;;;;;;5112446;27;20034;-56
2023/12/04 05:37:49;;;;;;;20.10;11.70;;;;;;;;;;5113127;27;20035;-56
2023/12/04 05:40:15;;;;;;;22.83;12.68;;;;;;;;;;5116895;27;20035;-56
2023/12/04 05:42:41;;;;;;;19.38;12.20;;;;;;;;;;5117344;27;20050;-56
2023/12/04 05:45:08;;;;;;;19.60;12.27;;;;;;;;;;5115133;27;20042;-56
2023/12/04 05:47:37;;;;;;;17.20;10.35;;;;;;;;;;5115055;27;20051;-56
2023/12/04 05:50:03;;;;;;;19.15;10.60;;;;;;;;;;5111782;27;20039;-56
2023/12/04 05:52:29;;;;;;;19.95;12.18;;;;;;;;;;5116561;27;20499;-56
2023/12/04 05:54:55;;;;;;;19.88;11.45;;;;;;;;;;5119191;27;20160;-57
2023/12/04 05:57:21;;;;;;;20.73;11.65;;;;;;;;;;5098586;27;20075;-56
2023/12/04 05:59:48;;;;;;;19.17;11.13;;;;;;;;;;5116970;27;20405;-57
2023/12/04 06:02:15;;;;;;;17.38;10.98;;;;;;;;;;5112712;27;20373;-57
2023/12/04 06:04:41;;;;;;;19.10;11.55;;;;;;;;;;5115460;27;20593;-56
2023/12/04 06:07:07;;;;;;;19.02;11.38;;;;;;;;;;5116108;27;20043;-57
2023/12/04 06:09:33;;;;;;;15.68;9.18;;;;;;;;;;5113397;27;20044;-56
2023/12/04 06:12:04;;;;;;;14.43;9.43;;;;;;;;;;5116522;27;20493;-57
2023/12/04 06:14:30;;;;;;;15.90;10.10;;;;;;;;;;5116439;27;20046;-57
2023/12/04 06:16:56;;;;;;;14.82;10.27;;;;;;;;;;5114842;27;20043;-57
2023/12/04 06:19:22;;;;;;;14.75;9.20;;;;;;;;;;5114976;27;20027;-56
2023/12/04 06:21:48;;;;;;;16.35;10.07;;;;;;;;;;5114582;28;20403;-56
2023/12/04 06:24:14;;;;;;;19.98;10.93;;;;;;;;;;5117159;27;20235;-57
2023/12/04 06:26:45;;;;;;;18.13;11.05;;;;;;;;;;5114998;28;20050;-57
2023/12/04 06:29:11;;;;;;;16.83;10.40;;;;;;;;;;5112237;28;20031;-57
2023/12/04 06:31:37;;;;;;;17.80;11.25;;;;;;;;;;5112727;28;20054;-56
2023/12/04 06:34:03;;;;;;;19.38;11.65;;;;;;;;;;5113590;28;20070;-57
2023/12/04 06:36:32;;;;;;;17.95;11.02;;;;;;;;;;5113695;28;20047;-57
2023/12/04 06:38:59;;;;;;;19.77;11.45;;;;;;;;;;5114270;28;20415;-57
2023/12/04 06:41:25;;;;;;;19.50;10.32;;;;;;;;;;5098334;28;20483;-56
2023/12/04 06:43:52;;;;;;;13.93;9.30;;;;;;;;;;5116312;28;20031;-56
2023/12/04 06:46:21;;;;;;;17.17;9.75;;;;;;;;;;5117057;28;20503;-56
2023/12/04 06:48:48;;;;;;;16.48;9.77;;;;;;;;;;5115438;28;20073;-56
2023/12/04 06:51:14;;;;;;;14.65;9.55;;;;;;;;;;5115111;28;20047;-56
2023/12/04 06:53:40;;;;;;;15.63;10.35;;;;;;;;;;5118058;28;20104;-57
2023/12/04 06:56:08;;;;;;;17.83;11.43;;;;;;;;;;5115989;28;20142;-56
2023/12/04 06:58:34;;;;;;;14.45;9.57;;;;;;;;;;5112947;28;20051;-56
2023/12/04 07:01:00;;;;;;;15.88;10.48;;;;;;;;;;5113258;28;20050;-56
2023/12/04 07:03:26;;;;;;;14.85;9.18;;;;;;;;;;5117473;27;20055;-57
2023/12/04 07:05:52;;;;;;;16.52;10.10;;;;;;;;;;5116459;27;20046;-56
2023/12/04 07:08:18;;;;;;;16.67;9.57;;;;;;;;;;5121124;27;20049;-58
2023/12/04 07:10:44;;;;;;;15.57;9.20;;;;;;;;;;5116748;27;20398;-59
2023/12/04 07:13:12;;;;;;;17.13;10.73;;;;;;;;;;5120325;27;20039;-58
2023/12/04 07:15:38;;;;;;;18.13;11.20;;;;;;;;;;5114650;27;20043;-59
2023/12/04 07:18:04;;;;;;;13.52;9.57;;;;;;;;;;5114176;27;20505;-58
2023/12/04 07:20:30;;;;;;;20.33;11.55;;;;;;;;;;5113517;27;20039;-59
2023/12/04 07:22:57;;;;;;;17.50;10.40;;;;;;;;;;5116590;27;20169;-58
2023/12/04 07:25:24;;;;;;;18.60;11.23;;;;;;;;;;5116065;27;20521;-59
2023/12/04 07:27:50;;;;;;;19.23;11.68;;;;;;;;;;5121536;27;20490;-56
2023/12/04 07:30:16;;;;;;;17.52;11.30;;;;;;;;;;5117810;27;20108;-57
2023/12/04 07:32:42;;;;;;;14.95;9.57;;;;;;;;;;5121854;27;20027;-57
2023/12/04 07:35:08;;;;;;;18.88;10.90;;;;;;;;;;5116501;27;20184;-57
2023/12/04 07:37:34;;;;;;;15.45;9.90;;;;;;;;;;5119597;27;20546;-57
2023/12/04 07:40:00;;;;;;;15.50;10.25;;;;;;;;;;5117582;27;20036;-57
2023/12/04 07:42:26;;;;;;;15.63;10.40;;;;;;;;;;5121606;27;20047;-57
2023/12/04 07:44:52;;;;;;;16.23;10.38;;;;;;;;;;5113359;27;20494;-57
2023/12/04 07:47:18;;;;;;;14.85;9.07;;;;;;;;;;5119722;27;20061;-56
2023/12/04 07:49:47;;;;;;;15.93;9.82;;;;;;;;;;5120485;27;20040;-56
2023/12/04 07:52:13;;;;;;;17.30;10.10;;;;;;;;;;5114605;27;21326;-57
2023/12/04 07:54:39;;;;;;;15.27;10.93;;;;;;;;;;5115962;27;20427;-57
2023/12/04 07:57:05;;;;;;;16.35;10.23;;;;;;;;;;5120300;27;20126;-56
2023/12/04 07:59:31;;;;;;;15.27;9.70;;;;;;;;;;5118593;27;20483;-57
2023/12/04 08:01:57;;;;;;;18.75;11.98;;;;;;;;;;5120717;27;20044;-57
2023/12/04 08:04:23;;;;;;;18.90;10.95;;;;;;;;;;5115586;27;20039;-57
2023/12/04 08:06:50;;;;;;;16.00;10.10;;;;;;;;;;5113592;27;20043;-58
2023/12/04 08:09:16;;;;;;;18.30;10.88;;;;;;;;;;5120873;27;20054;-58
2023/12/04 08:11:42;;;;;;;15.82;9.43;;;;;;;;;;5114446;27;20100;-58
2023/12/04 08:14:08;;;;;;;14.10;8.95;;;;;;;;;;5118282;27;20047;-59
2023/12/04 08:16:34;;;;;;;13.15;8.48;;;;;;;;;;5116969;27;20498;-58
2023/12/04 08:19:00;;;;;;;13.57;8.65;;;;;;;;;;5114166;27;20046;-59
2023/12/04 08:21:26;;;;;;;14.80;9.80;;;;;;;;;;5122275;27;20438;-59
2023/12/04 08:23:52;;;;;;;12.57;8.73;;;;;;;;;;5104708;27;20051;-58
2023/12/04 08:26:25;;;;;;;11.50;8.70;;;;;;;;;;5120509;27;20047;-58
2023/12/04 08:28:52;;;;;;;11.32;7.80;;;;;;;;;;5121164;27;20043;-59
2023/12/04 08:31:18;;;;;;;13.27;8.70;;;;;;;;;;5123253;27;20043;-59
2023/12/04 08:33:44;;;;;;;11.52;7.63;;;;;;;;;;5122212;27;20039;-58
2023/12/04 08:36:11;;;;;;;10.52;7.35;;;;;;;;;;5118541;27;20046;-58
2023/12/04 08:38:37;;;;;;;11.00;7.25;;;;;;;;;;5122020;27;20043;-58
2023/12/04 08:41:06;;;;;;;12.35;7.43;;;;;;;;;;5123463;27;20039;-56
2023/12/04 08:43:32;;;;;;;13.02;8.05;;;;;;;;;;5121654;27;20067;-56
2023/12/04 08:45:58;;;;;;;10.98;7.10;;;;;;;;;;5124792;27;20579;-56
2023/12/04 08:48:24;;;;;;;9.60;7.28;;;;;;;;;;5119844;27;20701;-60
2023/12/04 08:50:50;;;;;;;11.73;7.05;;;;;;;;;;5118330;27;20126;-54
2023/12/04 08:53:16;;;;;;;11.75;7.80;;;;;;;;;;5122437;27;20368;-58
2023/12/04 08:55:42;;;;;;;15.98;9.43;;;;;;;;;;5124800;27;20035;-59
2023/12/04 08:58:10;;;;;;;11.65;7.72;;;;;;;;;;5100903;27;20407;-59
2023/12/04 09:00:37;;;;;;;10.70;7.63;;;;;;;;;;5129832;27;20273;-58
2023/12/04 09:03:03;;;;;;;12.70;7.85;;;;;;;;;;5116312;27;20129;-58
2023/12/04 09:05:29;;;;;;;11.90;7.55;;;;;;;;;;5115649;27;20039;-58
2023/12/04 09:07:55;;;;;;;11.23;7.35;;;;;;;;;;5110855;27;20559;-59
2023/12/04 09:10:21;;;;;;;13.23;8.10;;;;;;;;;;5110412;27;20032;-58
2023/12/04 09:12:47;;;;;;;16.50;8.63;;;;;;;;;;5114340;27;20035;-58
2023/12/04 09:15:13;;;;;;;15.30;8.57;;;;;;;;;;5106844;27;20032;-58
2023/12/04 09:17:39;;;;;;;13.30;8.70;;;;;;;;;;5111852;27;20098;-59
2023/12/04 09:20:05;;;;;;;14.23;8.68;;;;;;;;;;5114774;27;20486;-60
2023/12/04 09:22:31;;;;;;;12.57;8.10;;;;;;;;;;5117744;27;20039;-59
2023/12/04 09:24:57;;;;;;;12.45;7.53;;;;;;;;;;5123946;27;20051;-59
2023/12/04 09:27:23;;;;;;;12.88;8.20;;;;;;;;;;5123141;27;20084;-58
2023/12/04 09:29:49;;;;;;;13.45;7.90;;;;;;;;;;5123209;27;20540;-58
2023/12/04 09:32:15;;;;;;;11.60;7.80;;;;;;;;;;5118476;27;20126;-58
2023/12/04 09:34:41;;;;;;;13.60;9.40;;;;;;;;;;5119935;27;20122;-59
2023/12/04 09:37:07;;;;;;;16.25;10.40;;;;;;;;;;5123586;27;20070;-58
2023/12/04 09:39:33;;;;;;;14.00;9.15;;;;;;;;;;5118793;27;20039;-58
2023/12/04 09:42:00;;;;;;;15.55;8.88;;;;;;;;;;5126345;27;20499;-58
2023/12/04 09:44:26;;;;;;;11.30;8.23;;;;;;;;;;5125459;27;20095;-58
2023/12/04 09:46:53;;;;;;;10.90;7.53;;;;;;;;;;5116460;27;20354;-59
2023/12/04 09:49:19;;;;;;;13.20;8.05;;;;;;;;;;5117526;27;20056;-59
2023/12/04 09:51:45;;;;;;;13.98;8.48;;;;;;;;;;5119496;27;20036;-59
2023/12/04 09:54:12;;;;;;;11.93;8.60;;;;;;;;;;5121656;27;20034;-58
2023/12/04 09:56:39;;;;;;;14.07;8.57;;;;;;;;;;5112887;27;20032;-58
2023/12/04 09:59:07;;;;;;;14.32;7.93;;;;;;;;;;5112493;27;20403;-59
2023/12/04 10:01:34;;;;;;;11.65;8.48;;;;;;;;;;5108822;27;20062;-59
2023/12/04 10:04:04;;;;;;;13.45;7.90;;;;;;;;;;5123509;27;20135;-59
2023/12/04 10:06:31;;;;;;;10.70;6.63;;;;;;;;;;5112637;27;20111;-60
2023/12/04 10:08:58;;;;;;;10.10;7.45;;;;;;;;;;5111206;27;20039;-59
2023/12/04 10:11:24;;;;;;;10.65;7.63;;;;;;;;;;5114391;27;20043;-59
2023/12/04 10:13:51;;;;;;;11.98;7.50;;;;;;;;;;5112111;27;20049;-59
2023/12/04 10:16:33;;;;;;;12.18;8.15;;;;;;;;;;5110796;27;20118;-59
2023/12/04 10:18:59;;;;;;;;;;;;;;;;;;5113629;27;20035;-59
2023/12/04 10:21:32;;;;;;;10.48;7.05;;;;;;;;;;5120023;27;20331;-59
2023/12/04 10:23:58;;;;;;;9.07;6.30;;;;;;;;;;5124122;28;20083;-59
2023/12/04 10:26:24;;;;;;;10.63;7.35;;;;;;;;;;5122587;28;20130;-59
2023/12/04 10:29:03;;;;;;;8.38;6.35;;;;;;;;;;5120775;28;20334;-58
2023/12/04 10:31:35;;;;;;;8.35;5.75;;;;;;;;;;5115281;28;20043;-59
2023/12/04 10:34:04;;;;;;;9.27;6.50;;;;;;;;;;5115777;28;20126;-59
2023/12/04 10:36:31;;;;;;;10.70;7.10;;;;;;;;;;5117607;27;20043;-58
2023/12/04 10:38:59;;;;;;;10.57;7.35;;;;;;;;;;5125490;27;20252;-59
2023/12/04 10:41:25;;;;;;;13.18;7.32;;;;;;;;;;5116258;27;20050;-59
2023/12/04 10:43:51;;;;;;;9.65;6.90;;;;;;;;;;5126663;27;20047;-59
2023/12/04 10:46:18;;;;;;;10.35;7.05;;;;;;;;;;5123249;27;20038;-59
2023/12/04 10:48:47;;;;;;;13.02;7.65;;;;;;;;;;5122885;27;20407;-59
2023/12/04 10:51:14;;;;;;;12.43;7.95;;;;;;;;;;5119811;27;20050;-59
2023/12/04 10:53:42;;;;;;;10.93;7.65;;;;;;;;;;5123357;27;20039;-59
2023/12/04 10:56:10;;;;;;;9.98;6.43;;;;;;;;;;5123016;27;20436;-59
2023/12/04 10:58:38;;;;;;;10.75;7.60;;;;;;;;;;5120174;27;20032;-59
2023/12/04 11:01:08;;;;;;;9.15;6.85;;;;;;;;;;5120905;27;20046;-59
2023/12/04 11:03:40;;;;;;;10.82;7.18;;;;;;;;;;5127040;27;20093;-59
2023/12/04 11:06:09;;;;;;;12.40;7.43;;;;;;;;;;5127468;27;20061;-59
2023/12/04 11:08:36;;;;;;;9.02;6.70;;;;;;;;;;5115691;27;20146;-59
2023/12/04 11:11:03;;;;;;;11.90;6.78;;;;;;;;;;5121591;27;20053;-59
2023/12/04 11:13:30;;;;;;;12.35;8.13;;;;;;;;;;5110082;27;20043;-59
2023/12/04 11:16:17;;;;;;;11.38;7.50;;;;;;;;;;5119056;27;20036;-59
2023/12/04 11:18:44;;;;;;;10.13;7.65;;;;;;;;;;5107462;27;20042;-58
2023/12/04 11:21:11;;;;;;;10.60;7.63;;;;;;;;;;5122719;27;20110;-59
2023/12/04 11:23:38;;;;;;;11.73;7.70;;;;;;;;;;5125594;27;20038;-60
2023/12/04 11:26:05;;;;;;;10.40;7.55;;;;;;;;;;5125248;27;20121;-59
2023/12/04 11:28:32;;;;;;;12.02;6.65;;;;;;;;;;5124050;27;20045;-60
2023/12/04 11:31:00;;;;;;;11.02;6.55;;;;;;;;;;5125256;27;20300;-59
2023/12/04 11:33:27;;;;;;;10.80;7.07;;;;;;;;;;5127364;27;20122;-59
2023/12/04 11:35:53;;;;;;;11.10;7.75;;;;;;;;;;5125080;27;20487;-59
2023/12/04 11:38:19;;;;;;;10.98;7.43;;;;;;;;;;5123672;27;20039;-58
2023/12/04 11:40:46;;;;;;;11.15;7.85;;;;;;;;;;5114627;27;20031;-59
2023/12/04 11:43:23;;;;;;;9.90;7.72;;;;;;;;;;5120174;27;20082;-58
2023/12/04 11:45:49;;;;;;;11.20;7.82;;;;;;;;;;5117914;27;20043;-59
2023/12/04 11:48:15;;;;;;;8.80;7.03;;;;;;;;;;5119634;27;20066;-58
2023/12/04 11:50:44;;;;;;;9.63;7.07;;;;;;;;;;5118379;27;20403;-58
2023/12/04 11:53:13;;;;;;;7.60;5.90;;;;;;;;;;5127745;27;20047;-58
2023/12/04 11:55:41;;;;;;;8.45;6.40;;;;;;;;;;5128628;27;20587;-58
2023/12/04 11:58:09;;;;;;;10.07;7.22;;;;;;;;;;5103694;27;20031;-58
2023/12/04 12:00:36;;;;;;;9.70;6.63;;;;;;;;;;5120740;27;20039;-58
2023/12/04 12:03:04;;;;;;;9.05;7.10;;;;;;;;;;5127575;27;20035;-60
2023/12/04 12:05:31;;;;;;;9.10;7.40;;;;;;;;;;5128241;27;20042;-58
2023/12/04 12:08:00;;;;;;;9.45;7.32;;;;;;;;;;5127152;27;20107;-59
2023/12/04 12:10:26;;;;;;;9.02;7.07;;;;;;;;;;5115826;27;20035;-58
2023/12/04 12:12:52;;;;;;;9.43;7.03;;;;;;;;;;5125884;27;20027;-58
2023/12/04 12:15:18;;;;;;;9.43;7.10;;;;;;;;;;5118359;27;20063;-59
2023/12/04 12:17:44;;;;;;;8.65;6.70;;;;;;;;;;5122669;27;20430;-58
2023/12/04 12:20:11;;;;;;;8.15;6.63;;;;;;;;;;5126114;27;20441;-58
2023/12/04 12:22:41;;;;;;;9.20;6.57;;;;;;;;;;5126979;27;20031;-59
2023/12/04 12:25:13;;;;;;;7.80;6.38;;;;;;;;;;5120062;27;20046;-59
2023/12/04 12:27:40;;;;;;;6.88;5.78;;;;;;;;;;5121013;27;20034;-58
2023/12/04 12:30:06;;;;;;;8.68;5.95;;;;;;;;;;5124272;27;20143;-58
2023/12/04 12:32:32;;;;;;;9.13;6.55;;;;;;;;;;5124126;27;20042;-58
2023/12/04 12:34:59;;;;;;;7.65;5.93;;;;;;;;;;5124811;27;20043;-58
2023/12/04 12:37:25;;;;;;;10.32;5.90;;;;;;;;;;5127504;27;20104;-58
2023/12/04 12:39:51;;;;;;;7.93;6.28;;;;;;;;;;5123703;27;20035;-58
2023/12/04 12:42:22;;;;;;;8.10;6.82;;;;;;;;;;5117907;27;20403;-58
2023/12/04 12:44:48;;;;;;;9.60;6.90;;;;;;;;;;5108097;27;20077;-58
2023/12/04 12:47:15;;;;;;;9.63;6.75;;;;;;;;;;5126426;27;20042;-59
2023/12/04 12:49:41;;;;;;;9.70;7.75;;;;;;;;;;5118612;27;20465;-58
2023/12/04 12:52:10;;;;;;;9.95;6.78;;;;;;;;;;5107508;27;20114;-59
2023/12/04 12:54:41;;;;;;;8.52;5.97;;;;;;;;;;5124739;27;20133;-58
2023/12/04 12:57:07;;;;;;;10.27;6.57;;;;;;;;;;5124273;27;20035;-59
2023/12/04 12:59:33;;;;;;;9.48;6.93;;;;;;;;;;5125964;27;20039;-58
2023/12/04 13:02:02;;;;;;;12.82;7.80;;;;;;;;;;5118219;27;20043;-59
2023/12/04 13:04:35;;;;;;;8.18;6.65;;;;;;;;;;5119323;27;20083;-59
2023/12/04 13:07:02;;;;;;;9.25;6.68;;;;;;;;;;5115768;27;20043;-59
2023/12/04 13:09:28;;;;;;;9.27;7.15;;;;;;;;;;5122168;27;20530;-59
2023/12/04 13:11:55;;;;;;;9.30;7.40;;;;;;;;;;5110938;27;20506;-59
2023/12/04 13:14:21;;;;;;;9.10;6.53;;;;;;;;;;5120895;27;20051;-59
2023/12/04 13:16:47;;;;;;;10.93;7.55;;;;;;;;;;5111879;27;20063;-59
2023/12/04 13:19:13;;;;;;;7.80;6.43;;;;;;;;;;5100938;27;20039;-58
2023/12/04 13:21:39;;;;;;;13.30;7.32;;;;;;;;;;5121046;27;20046;-59
2023/12/04 13:24:08;;;;;;;9.75;7.53;;;;;;;;;;5121701;27;20074;-59
2023/12/04 13:26:34;;;;;;;9.27;6.78;;;;;;;;;;5119790;27;20464;-59
2023/12/04 13:29:01;;;;;;;9.63;7.72;;;;;;;;;;5121349;27;20100;-59
2023/12/04 13:31:27;;;;;;;9.65;7.93;;;;;;;;;;5123563;27;20484;-59
2023/12/04 13:33:53;;;;;;;8.98;6.82;;;;;;;;;;5122386;27;20035;-58
2023/12/04 13:36:20;;;;;;;12.13;7.55;;;;;;;;;;5123033;27;20146;-59
2023/12/04 13:38:46;;;;;;;10.07;7.75;;;;;;;;;;5121382;27;20338;-59
2023/12/04 13:44:02;;;;;;;9.52;7.85;;;;;;;;;;5073152;27;20047;-59
2023/12/04 13:46:29;;;;;;;10.63;8.18;;;;;;;;;;5100014;27;20054;-59
2023/12/04 13:48:55;;;;;;;9.27;7.05;;;;;;;;;;5120253;27;20121;-60
2023/12/04 13:51:22;;;;;;;9.40;6.90;;;;;;;;;;5117226;27;20045;-60
2023/12/04 13:53:56;;;;;;;12.40;8.40;;;;;;;;;;5123519;27;20047;-60
2023/12/04 13:56:43;;;;;;;8.20;6.55;;;;;;;;;;5117302;27;20043;-60
2023/12/04 13:59:18;;;;;;;8.75;6.53;;;;;;;;;;5114367;27;20361;-60
2023/12/04 14:01:44;;;;;;;10.10;7.40;;;;;;;;;;5119786;27;20043;-60
2023/12/04 14:04:10;;;;;;;8.80;6.80;;;;;;;;;;5124431;27;20047;-60
2023/12/04 14:06:36;;;;;;;10.70;6.93;;;;;;;;;;5123187;27;20078;-61
2023/12/04 14:09:05;;;;;;;10.07;7.47;;;;;;;;;;5123882;27;20392;-60
2023/12/04 14:11:31;;;;;;;10.35;7.78;;;;;;;;;;5123875;27;20356;-60
2023/12/04 14:13:57;;;;;;;9.15;7.15;;;;;;;;;;5123247;27;20103;-60
2023/12/04 14:16:23;;;;;;;9.10;6.60;;;;;;;;;;5099001;27;20403;-60
2023/12/04 14:18:49;;;;;;;10.30;7.45;;;;;;;;;;5123650;27;20152;-60
2023/12/04 14:21:15;;;;;;;9.25;6.70;;;;;;;;;;5117513;27;20443;-60
2023/12/04 14:23:41;;;;;;;10.63;7.25;;;;;;;;;;5124834;27;20158;-60
2023/12/04 14:26:07;;;;;;;10.25;7.32;;;;;;;;;;5120227;27;20126;-60